Time;durP1;ratioP1;P1;durP2;ratioP2;P2;SDS_P1;SDS_P2;PMS_P1;PMS_P2;Temp;Humidity;BMP_temperature;BMP_pressure;BME280_temperature;BME280_humidity;BME280_pressure;Samples;Min_cycle;Max_cycle;Signal;HPM_P1;HPM_P2
2022/05/05 00:00:40;;;;;;;7.93;3.20;;;;;;;9.01;69.52;101820.25;20875072;28;20044;-67
2022/05/05 00:21:42;;;;;;;8.35;3.75;;;;;;;8.89;69.40;101818.16;20858889;28;20044;-68
2022/05/05 00:32:04;;;;;;;8.27;3.57;;;;;;;8.75;69.47;101810.94;20833120;28;20426;-67
2022/05/05 00:42:25;;;;;;;6.70;3.10;;;;;;;8.69;69.91;101808.59;20854604;28;20049;-67
2022/05/05 00:52:47;;;;;;;6.37;3.53;;;;;;;8.63;70.45;101808.84;20844002;28;20033;-67
2022/05/05 01:03:12;;;;;;;13.60;4.10;;;;;;;8.45;70.92;101806.16;20866111;28;20509;-68
2022/05/05 01:13:37;;;;;;;10.55;3.85;;;;;;;8.40;71.42;101820.25;20864155;28;20628;-67
2022/05/05 01:23:59;;;;;;;8.23;3.35;;;;;;;8.36;70.42;101816.91;20845553;28;20045;-67
2022/05/05 01:34:20;;;;;;;9.47;3.87;;;;;;;8.27;70.77;101806.03;20841887;28;20079;-68
2022/05/05 01:44:42;;;;;;;6.27;3.07;;;;;;;8.23;71.23;101809.66;20858824;28;20386;-67
2022/05/05 01:55:04;;;;;;;9.23;3.87;;;;;;;8.09;71.80;101814.50;20835878;28;20045;-67
2022/05/05 02:05:26;;;;;;;5.60;3.60;;;;;;;8.03;72.27;101817.34;20869856;28;20051;-66
2022/05/05 02:15:48;;;;;;;9.65;4.28;;;;;;;7.94;72.78;101830.69;20870539;28;20051;-67
2022/05/05 02:26:09;;;;;;;8.37;3.77;;;;;;;7.85;72.79;101839.66;20860736;28;20049;-67
2022/05/05 02:47:12;;;;;;;7.18;4.13;;;;;;;7.67;73.80;101839.50;20828598;28;20041;-69
2022/05/05 02:57:34;;;;;;;7.68;4.47;;;;;;;7.57;75.17;101843.28;20848046;28;20040;-66
2022/05/05 03:07:55;;;;;;;8.88;4.20;;;;;;;7.61;74.15;101844.88;20847669;28;20044;-65
2022/05/05 03:18:17;;;;;;;8.03;4.07;;;;;;;7.53;75.25;101846.94;20865932;28;20501;-68
2022/05/05 03:28:38;;;;;;;9.27;4.33;;;;;;;7.49;75.36;101850.53;20823051;28;20729;-66
2022/05/05 03:39:00;;;;;;;6.87;4.90;;;;;;;7.43;74.82;101863.69;20854415;28;20045;-66
2022/05/05 03:49:21;;;;;;;7.60;5.07;;;;;;;7.39;75.40;101864.72;20821546;28;20402;-66
2022/05/05 03:59:43;;;;;;;10.07;4.93;;;;;;;7.32;75.75;101873.59;20859309;28;20045;-65
2022/05/05 04:10:05;;;;;;;7.80;5.03;;;;;;;7.30;75.52;101890.97;20853020;28;20048;-66
2022/05/05 04:20:27;;;;;;;8.95;5.28;;;;;;;7.28;75.14;101892.75;20841957;28;20537;-65
2022/05/05 04:30:49;;;;;;;8.10;5.57;;;;;;;7.36;75.21;101906.31;20874656;28;20672;-65
2022/05/05 04:41:10;;;;;;;10.67;5.53;;;;;;;7.55;75.70;101916.91;20833712;28;20106;-65
2022/05/05 04:51:32;;;;;;;10.10;6.43;;;;;;;7.66;76.22;101915.63;20823337;28;20045;-67
2022/05/05 05:01:53;;;;;;;13.77;6.00;;;;;;;7.97;75.29;101921.44;20862998;28;20276;-64
2022/05/05 05:12:15;;;;;;;9.93;5.93;;;;;;;8.20;74.46;101940.50;20868046;28;20540;-65
2022/05/05 05:22:37;;;;;;;10.43;5.93;;;;;;;8.42;74.62;101949.16;20835441;28;20476;-65
2022/05/05 05:32:58;;;;;;;11.00;6.20;;;;;;;8.61;74.11;101961.38;20856841;28;20398;-65
2022/05/05 05:43:20;;;;;;;9.90;5.87;;;;;;;8.74;74.12;101965.19;20871587;28;20516;-65
2022/05/05 05:53:42;;;;;;;11.35;6.38;;;;;;;8.98;72.69;101968.59;20839671;28;20052;-65
2022/05/05 06:04:04;;;;;;;11.57;6.67;;;;;;;9.25;72.45;101986.56;20860760;28;20552;-65
2022/05/05 06:14:25;;;;;;;14.43;6.93;;;;;;;9.49;71.69;101982.94;20855416;28;20037;-66
2022/05/05 06:24:47;;;;;;;13.93;5.20;;;;;;;9.78;70.56;101982.53;20856521;28;20049;-66
2022/05/05 06:35:09;;;;;;;8.90;5.60;;;;;;;9.98;69.06;101987.75;20857870;28;20045;-66
2022/05/05 06:45:31;;;;;;;10.73;5.10;;;;;;;10.17;68.33;101988.69;20809212;28;20045;-67
2022/05/05 06:55:55;;;;;;;9.50;5.40;;;;;;;10.31;67.67;102001.94;20814647;28;20065;-67
2022/05/05 07:06:17;;;;;;;16.40;5.68;;;;;;;10.43;68.56;102004.81;20866286;28;20456;-67
2022/05/05 07:16:38;;;;;;;10.60;4.82;;;;;;;10.55;66.87;102006.91;20823652;28;20505;-67
2022/05/05 07:27:01;;;;;;;12.30;4.97;;;;;;;10.73;66.72;102013.84;20815836;28;20049;-66
2022/05/05 07:37:23;;;;;;;11.13;4.43;;;;;;;10.86;66.97;102022.78;20819468;28;20048;-66
2022/05/05 07:47:44;;;;;;;12.87;3.47;;;;;;;11.01;65.23;102017.72;20857605;28;20047;-67
2022/05/05 07:58:06;;;;;;;9.73;3.60;;;;;;;11.28;65.32;102026.84;20821288;28;20045;-66
2022/05/05 08:08:28;;;;;;;10.25;4.03;;;;;;;11.41;64.49;102027.94;20866929;28;20633;-66
2022/05/05 08:18:49;;;;;;;11.93;3.77;;;;;;;11.60;64.95;102028.75;20864486;28;20045;-66
2022/05/05 08:29:11;;;;;;;13.05;4.20;;;;;;;11.75;63.54;102041.88;20812164;28;20043;-65
2022/05/05 08:39:32;;;;;;;11.23;4.17;;;;;;;11.96;64.02;102053.03;20857378;28;20043;-66
2022/05/05 08:49:59;;;;;;;6.83;4.00;;;;;;;12.16;63.12;102050.25;20835484;28;20073;-65
2022/05/05 09:00:21;;;;;;;10.70;3.95;;;;;;;12.24;62.10;102055.91;20844503;28;20050;-65
2022/05/05 09:10:45;;;;;;;8.30;4.03;;;;;;;12.43;62.56;102074.97;20854036;28;20041;-65
2022/05/05 09:21:07;;;;;;;11.23;4.03;;;;;;;12.63;62.46;102060.75;20832785;28;20132;-65
2022/05/05 09:31:28;;;;;;;10.50;4.67;;;;;;;12.95;62.35;102059.88;20811865;28;20041;-65
2022/05/05 09:41:52;;;;;;;8.80;4.53;;;;;;;13.12;61.28;102074.69;20819174;28;20061;-65
2022/05/05 10:13:43;;;;;;;7.28;3.33;;;;;;;14.01;60.21;102089.56;20857472;28;20142;-65
2022/05/05 10:24:25;;;;;;;5.68;2.85;;;;;;;14.50;53.94;102083.97;20832407;28;20041;-66
2022/05/05 10:35:13;;;;;;;8.40;3.17;;;;;;;14.74;54.80;102072.81;20811531;28;20041;-65
2022/05/05 10:45:34;;;;;;;4.72;2.83;;;;;;;15.15;58.66;102070.22;20854192;28;20052;-65
2022/05/05 10:55:57;;;;;;;6.63;2.80;;;;;;;15.52;57.01;102075.66;20854801;28;20041;-66
2022/05/05 11:06:20;;;;;;;4.82;2.50;;;;;;;15.83;56.30;102075.34;20827983;28;20053;-65
2022/05/05 11:27:37;;;;;;;3.65;1.55;;;;;;;16.72;55.59;102095.44;20813472;28;20123;-66
2022/05/05 11:37:59;;;;;;;;;;;;;;;17.02;46.06;102081.88;20829894;28;20064;-66
2022/05/05 11:48:23;;;;;;;3.65;1.42;;;;;;;17.21;56.29;102093.63;20836902;28;19929;-66
2022/05/05 12:10:07;;;;;;;3.13;1.60;;;;;;;17.85;51.56;102085.38;20884934;28;20042;-67
2022/05/05 12:20:30;;;;;;;4.88;1.55;;;;;;;18.10;56.28;102082.56;20872406;28;20033;-66
2022/05/05 12:30:52;;;;;;;3.65;1.42;;;;;;;18.31;56.43;102083.63;20854814;28;20041;-66
2022/05/05 12:41:13;;;;;;;5.22;1.45;;;;;;;18.32;56.35;102090.59;20829525;28;20049;-66
2022/05/05 12:51:39;;;;;;;3.00;1.52;;;;;;;18.27;53.74;102082.16;20861106;28;20045;-65
2022/05/05 13:02:00;;;;;;;4.70;1.33;;;;;;;18.27;54.31;102079.53;20870306;28;20950;-65
2022/05/05 13:12:22;;;;;;;4.50;2.03;;;;;;;18.16;55.63;102084.75;20836564;28;20046;-67
2022/05/05 13:22:43;;;;;;;3.13;1.50;;;;;;;18.29;53.22;102080.25;20821288;28;20410;-65
2022/05/05 13:33:05;;;;;;;3.70;1.40;;;;;;;17.99;56.14;102075.47;20810063;28;20501;-64
2022/05/05 13:43:26;;;;;;;5.53;1.50;;;;;;;18.12;55.68;102067.47;20822485;28;20037;-64
2022/05/05 13:53:48;;;;;;;4.30;1.52;;;;;;;18.24;55.24;102067.41;20826847;28;20056;-65
2022/05/05 14:04:09;;;;;;;5.60;1.98;;;;;;;18.24;54.92;102066.56;20831733;28;20045;-65
2022/05/05 14:14:31;;;;;;;4.53;1.90;;;;;;;18.00;55.56;102057.84;20829014;28;20041;-65
2022/05/05 14:24:52;;;;;;;5.03;2.17;;;;;;;18.23;52.86;102055.16;20811922;28;20052;-66
2022/05/05 14:35:14;;;;;;;4.63;2.30;;;;;;;18.38;53.10;102060.09;20813841;28;20037;-65
2022/05/05 14:45:37;;;;;;;4.47;2.08;;;;;;;18.51;55.25;102057.34;20792893;28;20056;-66
2022/05/05 14:55:59;;;;;;;9.82;2.63;;;;;;;18.57;55.00;102070.06;20845439;28;20481;-64
2022/05/05 15:06:21;;;;;;;8.35;3.25;;;;;;;18.29;55.71;102061.78;20850867;28;20045;-65
2022/05/05 15:16:43;;;;;;;6.00;3.13;;;;;;;18.24;56.03;102066.56;20825638;28;20049;-64
2022/05/05 15:27:05;;;;;;;5.32;2.80;;;;;;;18.23;55.85;102064.88;20835625;28;20048;-65
2022/05/05 15:37:27;;;;;;;5.65;3.00;;;;;;;18.48;56.12;102071.63;20799790;28;20052;-66
2022/05/05 15:47:52;;;;;;;6.38;3.65;;;;;;;18.42;55.25;102056.28;20814276;28;20047;-65
2022/05/05 15:58:14;;;;;;;4.45;2.92;;;;;;;18.36;56.75;102057.69;20851255;28;20721;-66
2022/05/05 16:08:35;;;;;;;9.48;3.50;;;;;;;18.17;57.44;102060.03;20831689;28;20517;-65
2022/05/05 16:18:57;;;;;;;10.18;3.50;;;;;;;18.27;57.55;102066.31;20837579;28;20037;-66
2022/05/05 16:30:07;;;;;;;4.82;3.20;;;;;;;18.68;57.07;102072.75;20834012;28;20057;-66
2022/05/05 16:40:01;;;;;;;9.38;3.97;;;;;;;19.41;55.97;102083.47;20845046;28;20509;-66
2022/05/05 16:50:24;;;;;;;8.32;4.05;;;;;;;19.45;54.98;102086.72;20848174;28;20061;-64
2022/05/05 17:00:46;;;;;;;10.10;4.40;;;;;;;19.04;59.94;102097.09;20867906;28;20540;-66
2022/05/05 17:11:07;;;;;;;9.85;4.80;;;;;;;18.66;58.56;102101.91;20854387;28;20051;-65
2022/05/05 17:21:31;;;;;;;12.18;4.85;;;;;;;18.57;60.93;102107.91;20818330;28;20672;-67
2022/05/05 17:31:52;;;;;;;8.77;4.68;;;;;;;18.46;61.03;102113.19;20831901;28;20051;-66
2022/05/05 17:42:14;;;;;;;6.43;4.63;;;;;;;18.43;61.51;102123.97;20864126;28;20033;-65
2022/05/05 17:52:36;;;;;;;13.73;4.90;;;;;;;17.85;62.56;102122.31;20863185;28;20061;-66
2022/05/05 18:02:58;;;;;;;8.48;5.28;;;;;;;17.38;63.07;102124.94;20808541;28;20048;-66
2022/05/05 18:13:19;;;;;;;9.57;5.40;;;;;;;16.90;63.12;102131.00;20826292;28;20749;-66
2022/05/05 18:23:42;;;;;;;9.30;5.57;;;;;;;16.71;62.91;102135.91;20830278;28;20401;-66
2022/05/05 18:34:03;;;;;;;9.82;5.40;;;;;;;16.47;63.05;102148.09;20833009;28;20065;-66
2022/05/05 18:44:25;;;;;;;;;;;;;;;16.14;62.80;102154.75;20817503;28;20045;-66
2022/05/05 18:54:46;;;;;;;8.18;4.40;;;;;;;15.90;63.79;102158.16;20842099;28;19921;-65
2022/05/05 19:05:09;;;;;;;14.75;5.00;;;;;;;15.79;64.08;102179.03;20831924;28;20045;-65
2022/05/05 19:15:30;;;;;;;12.15;4.80;;;;;;;15.64;64.07;102186.16;20863407;28;20045;-66
2022/05/05 19:25:52;;;;;;;;;;;;;;;15.45;66.39;102190.00;20847347;28;20041;-65
2022/05/05 19:36:13;;;;;;;11.93;6.07;;;;;;;15.38;64.27;102204.50;20856198;28;19943;-64
2022/05/05 19:46:35;;;;;;;;;;;;;;;15.10;65.74;102198.38;20863635;28;20040;-66
2022/05/05 20:07:50;;;;;;;8.98;6.18;;;;;;;14.91;64.19;102219.66;20810155;28;20041;-66
2022/05/05 20:18:12;;;;;;;10.15;5.80;;;;;;;14.83;64.31;102232.41;20838071;28;20416;-65
2022/05/05 20:28:34;;;;;;;8.02;4.50;;;;;;;14.71;63.89;102238.38;20845688;28;20041;-65
2022/05/05 20:38:56;;;;;;;8.93;4.38;;;;;;;14.60;64.09;102245.22;20863405;28;20382;-66
2022/05/05 20:49:17;;;;;;;8.65;4.20;;;;;;;14.46;64.14;102243.38;20869763;28;20041;-67
2022/05/05 20:59:39;;;;;;;8.95;4.00;;;;;;;14.32;64.46;102244.25;20860890;28;20041;-65
2022/05/05 21:10:01;;;;;;;5.45;3.40;;;;;;;14.24;64.64;102254.34;20856581;28;20045;-66
2022/05/05 21:31:03;;;;;;;7.35;4.18;;;;;;;14.06;64.91;102257.97;20821565;28;20052;-65
2022/05/05 21:41:25;;;;;;;7.85;4.30;;;;;;;13.93;65.12;102251.72;20846818;28;20044;-66
2022/05/05 21:51:47;;;;;;;;;;;;;;;13.72;68.83;102266.00;20868337;28;20047;-65
2022/05/05 22:02:09;;;;;;;7.00;4.40;;;;;;;13.67;66.06;102263.63;20851102;28;19925;-66
2022/05/05 22:12:30;;;;;;;8.93;4.53;;;;;;;13.60;66.13;102264.06;20840959;28;20053;-66
2022/05/05 22:22:52;;;;;;;6.47;4.53;;;;;;;13.48;66.76;102262.09;20859640;28;20060;-65
2022/05/05 22:33:16;;;;;;;8.85;4.70;;;;;;;13.34;66.49;102267.22;20842619;28;20048;-66
2022/05/05 22:43:37;;;;;;;13.65;5.13;;;;;;;13.24;67.12;102265.16;20869408;28;20238;-66
2022/05/05 22:53:59;;;;;;;13.32;5.00;;;;;;;13.14;67.51;102262.19;20846887;28;20039;-66
2022/05/05 23:04:20;;;;;;;7.05;4.80;;;;;;;12.92;68.03;102259.00;20836442;28;20056;-66
2022/05/05 23:14:42;;;;;;;7.97;4.80;;;;;;;12.74;69.40;102259.03;20857689;28;20055;-65
2022/05/05 23:25:04;;;;;;;8.27;4.93;;;;;;;12.63;69.10;102267.44;20859244;28;20048;-66
2022/05/05 23:46:10;;;;;;;8.70;5.00;;;;;;;12.40;70.13;102258.19;20862354;28;20512;-67
2022/05/05 23:56:32;;;;;;;10.50;5.35;;;;;;;12.30;70.01;102252.53;20833736;28;20041;-66
